Time;durP1;ratioP1;P1;durP2;ratioP2;P2;SDS_P1;SDS_P2;PMS_P1;PMS_P2;Temp;Humidity;BMP_temperature;BMP_pressure;BME280_temperature;BME280_humidity;BME280_pressure;Samples;Min_cycle;Max_cycle;Signal;HPM_P1;HPM_P2
2023/03/05 00:00:35;;;;;;;58.83;23.07;;;0.90;78.80;;;;;;5004989;28;20789;-59
2023/03/05 00:03:01;;;;;;;56.87;23.37;;;0.90;78.70;;;;;;5005269;28;20186;-58
2023/03/05 00:05:27;;;;;;;59.97;23.87;;;0.90;78.60;;;;;;4997073;28;20198;-59
2023/03/05 00:07:52;;;;;;;61.27;23.67;;;0.90;78.00;;;;;;5008089;28;20295;-59
2023/03/05 00:10:18;;;;;;;55.57;23.73;;;0.90;77.80;;;;;;5001150;28;20175;-58
2023/03/05 00:12:43;;;;;;;48.30;22.37;;;0.90;77.80;;;;;;5000187;28;20605;-58
2023/03/05 00:15:09;;;;;;;62.83;23.50;;;0.80;78.10;;;;;;5003994;28;20251;-59
2023/03/05 00:17:35;;;;;;;67.83;24.33;;;0.80;79.00;;;;;;5006098;28;20648;-59
2023/03/05 00:20:01;;;;;;;57.53;23.17;;;0.80;79.80;;;;;;5004756;28;20234;-60
2023/03/05 00:22:26;;;;;;;57.40;22.87;;;0.80;79.50;;;;;;5000415;28;20183;-59
2023/03/05 00:24:52;;;;;;;64.63;23.70;;;0.70;79.80;;;;;;5008405;28;20190;-58
2023/03/05 00:27:17;;;;;;;69.83;24.00;;;0.70;80.40;;;;;;5004321;28;20212;-59
2023/03/05 00:29:43;;;;;;;61.80;24.27;;;0.70;81.80;;;;;;5010916;28;20172;-58
2023/03/05 00:32:09;;;;;;;60.43;23.97;;;0.60;81.20;;;;;;5002542;28;20603;-58
2023/03/05 00:34:35;;;;;;;61.33;23.40;;;0.60;81.20;;;;;;5003701;28;20179;-58
2023/03/05 00:37:01;;;;;;;71.33;25.13;;;0.60;80.70;;;;;;5002053;28;20301;-58
2023/03/05 00:39:27;;;;;;;60.93;24.33;;;0.60;81.20;;;;;;5001373;28;20608;-58
2023/03/05 00:41:52;;;;;;;67.10;24.73;;;0.50;80.90;;;;;;5002731;28;20190;-59
2023/03/05 00:44:18;;;;;;;56.73;22.70;;;0.50;80.70;;;;;;5004409;28;20546;-58
2023/03/05 00:46:44;;;;;;;61.50;24.90;;;0.40;80.70;;;;;;5002984;28;20581;-58
2023/03/05 00:49:09;;;;;;;67.10;24.83;;;0.40;80.50;;;;;;5004851;28;20913;-57
2023/03/05 00:51:35;;;;;;;68.23;25.90;;;0.40;81.50;;;;;;5003125;28;20187;-59
2023/03/05 00:54:01;;;;;;;73.97;26.23;;;0.30;82.00;;;;;;5004058;28;20738;-58
2023/03/05 00:56:26;;;;;;;62.90;23.97;;;0.30;82.80;;;;;;4997693;28;20199;-57
2023/03/05 00:58:52;;;;;;;69.60;25.53;;;0.30;83.10;;;;;;5007940;28;20265;-57
2023/03/05 01:01:18;;;;;;;56.87;24.57;;;0.20;85.40;;;;;;5006476;28;20183;-58
2023/03/05 01:03:43;;;;;;;63.47;24.07;;;0.20;86.90;;;;;;5004690;28;20706;-57
2023/03/05 01:06:12;;;;;;;65.50;25.23;;;0.20;87.60;;;;;;5004654;28;20268;-59
2023/03/05 01:08:38;;;;;;;64.93;25.37;;;0.20;86.70;;;;;;5001758;28;20849;-57
2023/03/05 01:11:05;;;;;;;58.17;22.63;;;0.20;86.20;;;;;;5004018;28;20449;-57
2023/03/05 01:13:31;;;;;;;61.73;26.83;;;0.20;86.30;;;;;;5004733;28;20477;-59
2023/03/05 01:15:57;;;;;;;81.67;25.87;;;0.20;86.90;;;;;;5006016;28;20445;-58
2023/03/05 01:18:22;;;;;;;62.97;25.53;;;0.10;87.00;;;;;;5009225;28;21112;-58
2023/03/05 01:20:48;;;;;;;66.50;25.17;;;0.10;88.40;;;;;;5002443;28;20229;-58
2023/03/05 01:23:14;;;;;;;61.37;24.50;;;0.10;88.60;;;;;;5008740;28;20171;-58
2023/03/05 01:25:40;;;;;;;58.40;23.60;;;0.10;88.50;;;;;;5004893;28;20213;-58
2023/03/05 01:28:06;;;;;;;63.00;24.00;;;0.10;88.50;;;;;;5008002;28;20435;-58
2023/03/05 01:30:32;;;;;;;60.30;23.63;;;0.10;87.50;;;;;;5007678;28;21374;-58
2023/03/05 01:32:58;;;;;;;57.57;23.00;;;0.10;86.00;;;;;;5007010;28;20260;-59
2023/03/05 01:35:25;;;;;;;54.67;22.10;;;0.00;85.60;;;;;;5005873;28;20528;-58
2023/03/05 01:37:51;;;;;;;44.43;19.37;;;0.00;84.70;;;;;;5011900;28;20468;-58
2023/03/05 01:40:20;;;;;;;54.70;20.23;;;-0.10;83.20;;;;;;5005905;28;20441;-58
2023/03/05 01:42:48;;;;;;;48.53;18.67;;;-0.20;83.00;;;;;;5008021;28;20499;-57
2023/03/05 01:45:17;;;;;;;57.63;20.37;;;-0.20;82.80;;;;;;5005724;28;20458;-58
2023/03/05 01:47:43;;;;;;;45.83;18.50;;;-0.30;83.00;;;;;;5009942;28;20509;-58
2023/03/05 01:50:20;;;;;;;48.67;18.70;;;-0.30;83.80;;;;;;5003948;28;21111;-56
2023/03/05 01:52:50;;;;;;;47.87;17.57;;;-0.40;83.70;;;;;;5009812;28;20484;-58
2023/03/05 01:55:19;;;;;;;55.60;19.43;;;-0.40;84.60;;;;;;5005508;28;20511;-58
2023/03/05 01:57:50;;;;;;;51.83;19.83;;;-0.40;86.30;;;;;;5009614;28;20524;-58
2023/03/05 02:00:20;;;;;;;59.77;20.73;;;-0.40;85.80;;;;;;5006024;28;20493;-58
2023/03/05 02:02:49;;;;;;;52.30;21.13;;;-0.40;86.10;;;;;;5002728;28;20456;-57
2023/03/05 02:05:25;;;;;;;44.83;19.37;;;-0.40;85.60;;;;;;5001836;28;21401;-58
2023/03/05 02:07:53;;;;;;;52.83;19.77;;;-0.40;85.10;;;;;;5005770;28;20971;-58
2023/03/05 02:10:24;;;;;;;38.60;17.40;;;-0.50;84.80;;;;;;5008863;28;20714;-58
2023/03/05 02:12:52;;;;;;;45.13;17.53;;;-0.50;85.40;;;;;;5008887;28;20449;-57
2023/03/05 02:15:18;;;;;;;50.27;17.63;;;-0.50;85.70;;;;;;5006311;28;20437;-57
2023/03/05 02:17:44;;;;;;;46.53;18.33;;;-0.50;86.80;;;;;;5007063;28;20441;-58
2023/03/05 02:20:13;;;;;;;47.17;19.90;;;-0.50;86.00;;;;;;5009208;28;20645;-58
2023/03/05 02:22:39;;;;;;;56.13;22.07;;;-0.50;86.30;;;;;;5000205;28;20463;-57
2023/03/05 02:25:18;;;;;;;53.60;21.17;;;-0.50;87.80;;;;;;5005721;28;20847;-57
2023/03/05 02:28:09;;;;;;;50.00;18.67;;;-0.60;87.20;;;;;;5006102;28;20210;-57
2023/03/05 02:30:34;;;;;;;61.97;22.63;;;-0.60;87.00;;;;;;4986959;28;20441;-58
2023/03/05 02:33:00;;;;;;;54.07;21.40;;;-0.60;87.10;;;;;;5007642;28;20487;-59
2023/03/05 02:35:26;;;;;;;56.20;21.20;;;-0.60;89.00;;;;;;5006409;28;20230;-58
2023/03/05 02:37:52;;;;;;;56.53;19.67;;;-0.60;89.40;;;;;;5008573;28;20217;-57
2023/03/05 02:40:17;;;;;;;45.93;19.50;;;-0.60;88.90;;;;;;5006381;28;20671;-57
2023/03/05 02:42:45;;;;;;;54.97;19.90;;;-0.60;89.80;;;;;;5006165;28;20187;-60
2023/03/05 02:45:12;;;;;;;54.67;20.70;;;-0.60;90.10;;;;;;4998933;28;20183;-60
2023/03/05 02:47:38;;;;;;;56.20;20.43;;;-0.60;91.00;;;;;;4998222;28;20502;-58
2023/03/05 02:50:05;;;;;;;54.87;20.03;;;-0.60;91.40;;;;;;5000985;28;20422;-58
2023/03/05 02:52:31;;;;;;;58.57;19.90;;;-0.60;91.60;;;;;;4996185;28;20441;-59
2023/03/05 02:54:57;;;;;;;48.80;18.77;;;-0.60;91.50;;;;;;4995511;28;20438;-58
2023/03/05 02:57:23;;;;;;;51.63;20.53;;;-0.60;91.30;;;;;;5003392;28;20484;-58
2023/03/05 02:59:48;;;;;;;53.67;19.40;;;-0.60;91.00;;;;;;5007854;28;20199;-57
2023/03/05 03:02:15;;;;;;;53.67;18.87;;;-0.60;91.20;;;;;;5007399;28;20615;-59
2023/03/05 03:04:42;;;;;;;60.67;20.63;;;-0.60;90.80;;;;;;5000626;28;20552;-58
2023/03/05 03:07:08;;;;;;;46.20;19.73;;;-0.70;90.50;;;;;;5003367;28;20481;-58
2023/03/05 03:09:34;;;;;;;52.40;20.80;;;-0.70;92.10;;;;;;5008988;28;20487;-57
2023/03/05 03:12:02;;;;;;;51.13;20.47;;;-0.70;91.50;;;;;;5005624;28;20437;-58
2023/03/05 03:14:30;;;;;;;63.33;23.13;;;-0.70;91.50;;;;;;5003590;28;21144;-58
2023/03/05 03:16:57;;;;;;;49.83;20.77;;;-0.70;92.80;;;;;;5006894;28;20997;-58
2023/03/05 03:19:23;;;;;;;56.73;21.33;;;-0.70;92.90;;;;;;5008493;28;20433;-58
2023/03/05 03:21:49;;;;;;;53.20;20.40;;;-0.70;92.70;;;;;;5005862;28;20500;-58
2023/03/05 03:24:14;;;;;;;64.57;21.97;;;-0.70;92.90;;;;;;5001980;28;20179;-58
2023/03/05 03:26:40;;;;;;;59.87;21.03;;;-0.80;92.00;;;;;;5002401;28;20473;-58
2023/03/05 03:29:06;;;;;;;64.87;24.63;;;-0.80;92.40;;;;;;5007381;28;20671;-58
2023/03/05 03:31:31;;;;;;;56.50;21.57;;;-0.80;92.70;;;;;;5005867;28;20202;-59
2023/03/05 03:33:57;;;;;;;55.70;21.70;;;-0.80;93.30;;;;;;5000464;28;20537;-58
2023/03/05 03:36:22;;;;;;;64.33;23.10;;;-0.80;92.90;;;;;;5005539;28;20202;-59
2023/03/05 03:38:48;;;;;;;63.97;23.47;;;-0.80;92.80;;;;;;5007757;28;20182;-57
2023/03/05 03:41:14;;;;;;;59.43;21.73;;;-0.90;92.80;;;;;;5004073;28;20237;-59
2023/03/05 03:43:39;;;;;;;46.10;18.20;;;-0.90;92.50;;;;;;5002757;28;20181;-59
2023/03/05 03:46:06;;;;;;;41.47;17.30;;;-0.90;91.60;;;;;;5002877;28;20193;-60
2023/03/05 03:48:31;;;;;;;35.73;14.33;;;-0.90;90.90;;;;;;5006735;28;20185;-58
2023/03/05 03:50:57;;;;;;;42.60;16.30;;;-1.00;90.30;;;;;;5002198;28;20867;-58
2023/03/05 03:53:22;;;;;;;39.70;14.90;;;-1.00;90.10;;;;;;5002780;28;20209;-58
2023/03/05 03:55:48;;;;;;;42.07;15.53;;;-1.10;91.30;;;;;;5013594;28;20256;-58
2023/03/05 03:58:14;;;;;;;36.03;15.90;;;-1.10;92.40;;;;;;5004843;28;20202;-58
2023/03/05 04:00:40;;;;;;;44.23;15.57;;;-1.10;92.90;;;;;;5003396;28;20242;-58
2023/03/05 04:03:06;;;;;;;48.63;17.00;;;-1.10;93.60;;;;;;5001939;28;20222;-59
2023/03/05 04:05:31;;;;;;;39.87;16.47;;;-1.10;93.70;;;;;;5004990;28;20453;-59
2023/03/05 04:07:58;;;;;;;41.27;17.20;;;-1.10;94.50;;;;;;5006231;28;20532;-58
2023/03/05 04:10:24;;;;;;;39.00;17.60;;;-1.00;94.50;;;;;;5004659;28;20261;-58
2023/03/05 04:12:50;;;;;;;45.63;19.10;;;-1.00;94.60;;;;;;5004850;28;20481;-58
2023/03/05 04:15:16;;;;;;;52.40;19.17;;;-1.00;95.30;;;;;;5003525;28;20460;-57
2023/03/05 04:17:41;;;;;;;54.60;20.53;;;-0.90;95.50;;;;;;5001378;28;20726;-57
2023/03/05 04:20:09;;;;;;;50.60;19.43;;;-0.90;95.50;;;;;;4996889;28;20198;-60
2023/03/05 04:22:35;;;;;;;45.63;20.00;;;-0.90;95.40;;;;;;5006513;28;20737;-58
2023/03/05 04:25:05;;;;;;;49.43;21.00;;;-0.90;95.20;;;;;;5003723;28;20433;-58
2023/03/05 04:27:33;;;;;;;54.43;21.43;;;-0.90;95.70;;;;;;5005390;28;20473;-59
2023/03/05 04:29:59;;;;;;;54.77;21.57;;;-0.80;95.70;;;;;;5002820;28;20426;-59
2023/03/05 04:32:28;;;;;;;60.73;22.03;;;-0.80;94.60;;;;;;5004421;28;20449;-58
2023/03/05 04:34:57;;;;;;;54.50;21.40;;;-0.80;94.30;;;;;;5004793;28;20573;-58
2023/03/05 04:37:25;;;;;;;52.80;21.07;;;-0.80;94.40;;;;;;5007879;28;20541;-58
2023/03/05 04:39:52;;;;;;;51.57;19.70;;;-0.80;93.80;;;;;;5007005;28;20495;-58
2023/03/05 04:42:18;;;;;;;44.90;19.93;;;-0.80;94.40;;;;;;5004552;28;20444;-58
2023/03/05 04:44:45;;;;;;;55.50;20.73;;;-0.80;94.60;;;;;;4999419;28;20469;-58
2023/03/05 04:47:11;;;;;;;55.03;20.23;;;-0.80;94.50;;;;;;5004542;28;20467;-58
2023/03/05 04:49:37;;;;;;;48.80;19.00;;;-0.80;94.40;;;;;;5000872;28;20626;-57
2023/03/05 04:52:02;;;;;;;47.57;19.47;;;-0.80;95.00;;;;;;5002813;28;20437;-57
2023/03/05 04:54:28;;;;;;;56.73;20.30;;;-0.80;94.90;;;;;;5009866;28;20262;-58
2023/03/05 04:56:54;;;;;;;53.90;20.07;;;-0.80;94.30;;;;;;5010444;28;20245;-58
2023/03/05 04:59:19;;;;;;;53.47;19.80;;;-0.80;93.80;;;;;;5007699;28;20776;-57
2023/03/05 05:01:45;;;;;;;42.53;18.17;;;-0.70;93.70;;;;;;5007307;28;20190;-57
2023/03/05 05:04:10;;;;;;;42.50;18.13;;;-0.70;92.40;;;;;;5009398;28;20810;-58
2023/03/05 05:06:36;;;;;;;50.63;19.50;;;-0.70;92.00;;;;;;5008593;28;20619;-59
2023/03/05 05:09:02;;;;;;;40.90;17.60;;;-0.70;90.70;;;;;;5008271;28;20266;-57
2023/03/05 05:11:27;;;;;;;42.67;16.33;;;-0.80;91.40;;;;;;5005289;28;20170;-58
2023/03/05 05:13:53;;;;;;;42.20;17.93;;;-0.80;92.40;;;;;;5007537;28;20269;-58
2023/03/05 05:16:19;;;;;;;42.77;16.60;;;-0.80;92.10;;;;;;5007333;28;20245;-59
2023/03/05 05:18:44;;;;;;;50.67;17.93;;;-0.80;92.90;;;;;;5008728;28;20182;-59
2023/03/05 05:21:11;;;;;;;41.23;16.77;;;-0.80;93.50;;;;;;5002118;28;20179;-59
2023/03/05 05:23:37;;;;;;;44.50;17.17;;;-0.80;93.60;;;;;;5010901;28;20269;-58
2023/03/05 05:26:06;;;;;;;42.27;16.87;;;-0.80;93.90;;;;;;5007012;28;20518;-58
2023/03/05 05:28:33;;;;;;;51.40;18.27;;;-0.90;94.60;;;;;;5001965;28;20431;-58
2023/03/05 05:30:58;;;;;;;42.83;17.37;;;-0.90;94.50;;;;;;5007271;28;20425;-58
2023/03/05 05:33:25;;;;;;;53.90;16.90;;;-0.90;95.10;;;;;;5012291;28;20472;-58
2023/03/05 05:35:50;;;;;;;43.37;16.90;;;-0.90;94.90;;;;;;5012047;28;20196;-58
2023/03/05 05:38:17;;;;;;;50.80;17.90;;;-0.90;95.60;;;;;;5002944;28;20507;-58
2023/03/05 05:40:42;;;;;;;49.23;16.97;;;-0.90;96.10;;;;;;5011591;28;20344;-58
2023/03/05 05:43:08;;;;;;;48.53;18.13;;;-0.80;95.70;;;;;;5006372;28;21017;-58
2023/03/05 05:45:36;;;;;;;49.37;18.23;;;-0.80;94.90;;;;;;5002413;28;20208;-58
2023/03/05 05:48:02;;;;;;;41.17;15.50;;;-0.80;95.00;;;;;;5017732;28;20322;-58
2023/03/05 05:50:28;;;;;;;50.23;19.33;;;-0.80;94.90;;;;;;5001323;28;20441;-58
2023/03/05 05:52:53;;;;;;;50.63;16.23;;;-0.80;94.10;;;;;;5004613;28;20193;-57
2023/03/05 05:55:19;;;;;;;36.53;15.70;;;-0.80;94.10;;;;;;5008727;28;20178;-57
2023/03/05 05:57:45;;;;;;;52.13;18.20;;;-0.80;94.70;;;;;;5010722;28;20536;-57
2023/03/05 06:00:13;;;;;;;43.50;16.73;;;-0.70;94.10;;;;;;5002131;28;20252;-57
2023/03/05 06:02:40;;;;;;;43.30;17.13;;;-0.70;94.00;;;;;;5009300;28;20473;-57
2023/03/05 06:05:08;;;;;;;46.73;17.43;;;-0.70;94.00;;;;;;5006634;28;20433;-58
2023/03/05 06:07:35;;;;;;;40.90;17.00;;;-0.70;94.40;;;;;;5009285;28;20517;-58
2023/03/05 06:10:00;;;;;;;43.30;17.17;;;-0.70;94.60;;;;;;5006227;28;20433;-58
2023/03/05 06:12:26;;;;;;;39.33;17.53;;;-0.70;95.10;;;;;;5009046;28;20437;-59
2023/03/05 06:14:52;;;;;;;56.20;17.87;;;-0.70;95.40;;;;;;5002939;28;20770;-59
2023/03/05 06:17:18;;;;;;;48.13;19.90;;;-0.70;95.70;;;;;;5002584;28;20206;-59
2023/03/05 06:19:44;;;;;;;51.60;18.87;;;-0.70;95.50;;;;;;5004054;28;20438;-58
2023/03/05 06:22:10;;;;;;;40.93;17.90;;;-0.70;95.80;;;;;;5008598;28;20926;-58
2023/03/05 06:24:37;;;;;;;58.97;18.07;;;-0.70;96.40;;;;;;5006789;28;20179;-58
2023/03/05 06:27:03;;;;;;;50.40;18.50;;;-0.70;97.20;;;;;;5008979;28;20471;-58
2023/03/05 06:29:29;;;;;;;53.60;19.80;;;-0.70;97.20;;;;;;5007144;28;20429;-58
2023/03/05 06:31:54;;;;;;;58.63;18.00;;;-0.60;97.30;;;;;;5012016;28;20433;-57
2023/03/05 06:34:20;;;;;;;49.40;19.70;;;-0.60;96.50;;;;;;5001298;28;20551;-59
2023/03/05 06:36:46;;;;;;;57.43;20.57;;;-0.60;95.90;;;;;;5007592;28;20230;-58
2023/03/05 06:39:11;;;;;;;47.57;17.83;;;-0.60;96.70;;;;;;5006303;28;20705;-58
2023/03/05 06:41:37;;;;;;;45.27;17.13;;;-0.50;97.10;;;;;;5006134;28;20182;-58
2023/03/05 06:44:03;;;;;;;44.10;17.50;;;-0.50;97.50;;;;;;5007530;28;20182;-59
2023/03/05 06:46:31;;;;;;;43.00;16.77;;;-0.50;96.70;;;;;;5008256;28;20234;-59
2023/03/05 06:48:59;;;;;;;43.73;17.13;;;-0.50;95.80;;;;;;5006632;28;20496;-58
2023/03/05 06:51:28;;;;;;;45.83;16.73;;;-0.50;94.70;;;;;;5000940;28;20414;-59
2023/03/05 06:53:54;;;;;;;43.70;16.77;;;-0.50;94.70;;;;;;5006946;28;20933;-59
2023/03/05 06:56:20;;;;;;;46.50;16.67;;;-0.50;95.50;;;;;;5005811;28;20457;-57
2023/03/05 06:58:47;;;;;;;44.27;16.53;;;-0.40;95.70;;;;;;5005197;28;21018;-58
2023/03/05 07:01:14;;;;;;;45.00;15.73;;;-0.40;95.10;;;;;;5006282;28;20437;-59
2023/03/05 07:03:41;;;;;;;40.30;17.50;;;-0.40;95.00;;;;;;5006836;28;20515;-58
2023/03/05 07:06:09;;;;;;;42.73;17.03;;;-0.40;94.70;;;;;;5006955;28;20450;-58
2023/03/05 07:08:36;;;;;;;45.13;18.10;;;-0.30;94.70;;;;;;4996650;28;20457;-58
2023/03/05 07:11:02;;;;;;;40.70;15.90;;;-0.30;94.90;;;;;;5003634;28;20426;-60
2023/03/05 07:13:28;;;;;;;41.47;16.27;;;-0.30;94.80;;;;;;5004895;28;20468;-61
2023/03/05 07:15:54;;;;;;;38.50;17.10;;;-0.20;94.00;;;;;;5007998;28;20972;-60
2023/03/05 07:18:19;;;;;;;41.53;15.23;;;-0.20;93.10;;;;;;5006915;28;20210;-61
2023/03/05 07:20:45;;;;;;;42.93;17.50;;;-0.20;93.60;;;;;;5005895;28;20437;-62
2023/03/05 07:23:11;;;;;;;39.70;18.10;;;-0.20;93.90;;;;;;4997398;28;20321;-60
2023/03/05 07:25:37;;;;;;;39.73;17.47;;;-0.10;94.00;;;;;;5001956;28;20204;-60
2023/03/05 07:28:05;;;;;;;46.80;18.47;;;-0.10;93.10;;;;;;4996920;28;20214;-61
2023/03/05 07:30:34;;;;;;;40.83;17.80;;;-0.10;93.30;;;;;;5000343;28;20516;-61
2023/03/05 07:33:01;;;;;;;45.70;19.43;;;-0.10;93.70;;;;;;5003976;28;20422;-59
2023/03/05 07:35:27;;;;;;;48.23;18.00;;;-0.10;93.70;;;;;;5000560;28;20457;-59
2023/03/05 07:37:54;;;;;;;45.63;19.27;;;-0.10;94.00;;;;;;5000157;28;20438;-58
2023/03/05 07:40:21;;;;;;;51.83;19.53;;;0.00;94.60;;;;;;5005135;28;20588;-60
2023/03/05 07:42:46;;;;;;;42.47;18.03;;;0.00;93.30;;;;;;5003566;28;20525;-58
2023/03/05 07:45:12;;;;;;;44.10;18.90;;;0.10;92.90;;;;;;5001965;28;20516;-59
2023/03/05 07:47:38;;;;;;;48.20;19.17;;;0.10;93.00;;;;;;5005823;28;20242;-57
2023/03/05 07:50:04;;;;;;;54.13;18.47;;;0.10;92.20;;;;;;5006239;28;20182;-58
2023/03/05 07:52:29;;;;;;;53.47;21.73;;;0.10;91.80;;;;;;5006699;28;20171;-58
2023/03/05 07:54:55;;;;;;;56.33;21.40;;;0.10;91.30;;;;;;5001098;28;20460;-58
2023/03/05 07:57:21;;;;;;;50.50;21.60;;;0.10;92.50;;;;;;5003581;28;20199;-59
2023/03/05 07:59:47;;;;;;;54.63;22.63;;;0.10;92.40;;;;;;4999717;28;20189;-60
2023/03/05 08:02:13;;;;;;;46.90;20.37;;;0.10;92.80;;;;;;5000715;28;20808;-55
2023/03/05 08:04:41;;;;;;;51.00;20.50;;;0.10;93.20;;;;;;5002298;28;20183;-57
2023/03/05 08:07:06;;;;;;;45.33;18.40;;;0.20;93.80;;;;;;5002369;28;20469;-56
2023/03/05 08:09:32;;;;;;;49.17;20.43;;;0.20;92.70;;;;;;5005328;28;20962;-55
2023/03/05 08:11:57;;;;;;;38.53;16.50;;;0.20;92.80;;;;;;4993445;28;20199;-58
2023/03/05 08:14:23;;;;;;;42.33;15.80;;;0.30;92.20;;;;;;5003499;28;20245;-61
2023/03/05 08:16:51;;;;;;;40.60;16.27;;;0.30;91.60;;;;;;5004871;28;20206;-59
2023/03/05 08:19:20;;;;;;;43.77;18.67;;;0.30;91.40;;;;;;4998280;28;20183;-59
2023/03/05 08:21:45;;;;;;;43.23;17.00;;;0.30;91.70;;;;;;4999759;28;20510;-59
2023/03/05 08:24:12;;;;;;;42.73;16.83;;;0.30;92.00;;;;;;5005567;28;20534;-60
2023/03/05 08:26:38;;;;;;;40.60;17.87;;;0.30;92.90;;;;;;5003678;28;20213;-59
2023/03/05 08:29:06;;;;;;;47.23;18.10;;;0.40;92.40;;;;;;5003889;28;21051;-60
2023/03/05 08:31:32;;;;;;;43.77;18.50;;;0.40;92.10;;;;;;5010220;28;20793;-57
2023/03/05 08:34:00;;;;;;;41.17;16.83;;;0.40;92.80;;;;;;5009920;28;20961;-60
2023/03/05 08:36:26;;;;;;;41.40;16.97;;;0.50;93.80;;;;;;5010975;28;20666;-59
2023/03/05 08:38:52;;;;;;;42.27;16.80;;;0.50;93.50;;;;;;5010288;28;20437;-62
2023/03/05 08:41:18;;;;;;;36.03;15.30;;;0.60;93.40;;;;;;5004568;28;20434;-58
2023/03/05 08:43:44;;;;;;;49.20;18.97;;;0.60;92.70;;;;;;5012168;28;20302;-60
2023/03/05 08:46:14;;;;;;;38.80;16.63;;;0.70;92.80;;;;;;5006242;28;20533;-60
2023/03/05 08:48:40;;;;;;;45.23;19.13;;;0.70;92.40;;;;;;5005591;28;20189;-60
2023/03/05 08:51:11;;;;;;;37.77;16.63;;;0.70;91.90;;;;;;5001649;28;20433;-59
2023/03/05 08:53:37;;;;;;;49.90;18.37;;;0.70;90.60;;;;;;5013629;28;20528;-59
2023/03/05 08:56:03;;;;;;;43.77;16.43;;;0.70;90.40;;;;;;5009717;28;20487;-60
2023/03/05 08:58:29;;;;;;;43.60;16.90;;;0.70;90.30;;;;;;5006651;28;20437;-60
2023/03/05 09:00:55;;;;;;;40.70;16.97;;;0.70;90.60;;;;;;5005737;28;20617;-60
2023/03/05 09:03:21;;;;;;;35.73;15.33;;;0.70;90.30;;;;;;5010545;28;21033;-59
2023/03/05 09:05:47;;;;;;;47.03;17.83;;;0.70;91.10;;;;;;5006089;28;20202;-59
2023/03/05 09:08:13;;;;;;;43.57;17.77;;;0.80;91.60;;;;;;5008734;28;20288;-61
2023/03/05 09:10:41;;;;;;;42.00;18.50;;;0.80;92.10;;;;;;5006116;28;20801;-59
2023/03/05 09:13:07;;;;;;;33.83;15.00;;;0.80;92.10;;;;;;5005707;28;20439;-59
2023/03/05 09:15:33;;;;;;;46.20;18.57;;;0.90;92.70;;;;;;5006452;28;20446;-59
2023/03/05 09:17:58;;;;;;;43.67;16.67;;;0.90;93.10;;;;;;5006332;28;20440;-59
2023/03/05 09:20:24;;;;;;;44.77;18.10;;;0.90;93.30;;;;;;5006896;28;20582;-59
2023/03/05 09:22:50;;;;;;;42.07;17.50;;;1.00;92.70;;;;;;5003579;28;20178;-59
2023/03/05 09:25:16;;;;;;;47.63;16.27;;;1.00;92.20;;;;;;5007525;28;20556;-60
2023/03/05 09:27:42;;;;;;;44.33;17.33;;;1.10;91.90;;;;;;5003338;28;20285;-60
2023/03/05 09:30:08;;;;;;;41.17;15.80;;;1.10;90.80;;;;;;5005225;28;20169;-59
2023/03/05 09:32:34;;;;;;;38.70;17.10;;;1.10;89.70;;;;;;5008450;28;21027;-61
2023/03/05 09:35:00;;;;;;;43.37;16.97;;;1.10;89.70;;;;;;5006808;28;20526;-58
2023/03/05 09:37:26;;;;;;;38.57;16.20;;;1.20;90.80;;;;;;5008743;28;20196;-59
2023/03/05 09:39:52;;;;;;;53.67;19.90;;;1.20;91.10;;;;;;5002818;28;20206;-62
2023/03/05 09:42:36;;;;;;;40.13;17.13;;;1.20;91.00;;;;;;5000506;28;20560;-59
2023/03/05 09:45:05;;;;;;;41.20;16.40;;;1.20;90.50;;;;;;5002027;28;20233;-60
2023/03/05 09:47:39;;;;;;;47.87;16.57;;;1.30;90.70;;;;;;5008293;28;20855;-59
2023/03/05 09:50:42;;;;;;;47.63;17.13;;;1.30;91.60;;;;;;5004454;28;20445;-58
2023/03/05 09:53:35;;;;;;;44.43;17.87;;;1.40;91.10;;;;;;5015422;28;21229;-60
2023/03/05 09:56:11;;;;;;;43.97;17.10;;;1.40;90.50;;;;;;5001213;28;20606;-61
2023/03/05 09:58:50;;;;;;;40.60;17.20;;;1.50;90.70;;;;;;5003887;28;20450;-59
2023/03/05 10:01:40;;;;;;;38.30;16.50;;;1.60;90.70;;;;;;5002477;28;20439;-60
2023/03/05 10:04:13;;;;;;;46.53;19.50;;;1.60;89.90;;;;;;5005216;28;20997;-60
2023/03/05 10:07:03;;;;;;;44.63;17.50;;;1.70;90.10;;;;;;5001845;28;20468;-60
2023/03/05 10:09:52;;;;;;;41.27;16.93;;;1.70;90.00;;;;;;5006855;28;20430;-58
2023/03/05 10:12:26;;;;;;;53.00;18.23;;;1.80;88.10;;;;;;5007976;28;20426;-62
2023/03/05 10:14:52;;;;;;;50.40;18.20;;;1.80;85.60;;;;;;5001646;28;20455;-61
2023/03/05 10:17:21;;;;;;;43.73;17.43;;;1.90;84.20;;;;;;5006147;28;20453;-61
2023/03/05 10:20:28;;;;;;;43.13;17.00;;;1.90;85.40;;;;;;4998788;28;20954;-60
2023/03/05 10:23:10;;;;;;;44.40;17.97;;;1.90;85.90;;;;;;4988529;28;20426;-60
2023/03/05 10:26:13;;;;;;;36.57;16.63;;;2.00;87.80;;;;;;5005863;28;20982;-59
2023/03/05 10:29:03;;;;;;;38.53;16.33;;;2.10;84.70;;;;;;4986126;28;20449;-61
2023/03/05 10:31:54;;;;;;;34.87;15.00;;;2.10;84.20;;;;;;5003465;28;20424;-58
2023/03/05 10:34:26;;;;;;;36.20;15.50;;;2.20;82.30;;;;;;5007356;28;20439;-58
2023/03/05 10:37:37;;;;;;;48.53;17.30;;;2.30;83.20;;;;;;5005327;28;20451;-58
2023/03/05 10:40:25;;;;;;;61.07;15.23;;;2.30;82.30;;;;;;5007213;28;20538;-57
2023/03/05 10:43:03;;;;;;;38.23;16.80;;;2.40;80.20;;;;;;5008498;28;20431;-59
2023/03/05 10:45:28;;;;;;;34.03;15.33;;;2.40;80.20;;;;;;5000294;28;20445;-58
2023/03/05 10:48:21;;;;;;;34.63;16.00;;;2.50;81.60;;;;;;5003674;28;20904;-58
2023/03/05 10:50:56;;;;;;;28.80;13.87;;;2.60;80.30;;;;;;5000014;28;20550;-59
2023/03/05 10:53:44;;;;;;;33.70;14.50;;;2.70;79.60;;;;;;5009426;28;21203;-59
2023/03/05 10:56:11;;;;;;;34.47;14.00;;;2.80;78.20;;;;;;5002863;28;20448;-60
2023/03/05 10:58:36;;;;;;;34.03;14.80;;;2.80;77.20;;;;;;5007686;28;20451;-59
2023/03/05 11:01:17;;;;;;;37.93;16.77;;;2.90;76.80;;;;;;5001324;28;20889;-60
2023/03/05 11:03:57;;;;;;;37.60;17.40;;;3.00;75.40;;;;;;5002859;28;20459;-59
2023/03/05 11:06:44;;;;;;;33.40;15.80;;;3.00;71.50;;;;;;4995641;28;20887;-60
2023/03/05 11:09:31;;;;;;;37.47;16.03;;;3.10;72.90;;;;;;5011045;28;20514;-59
2023/03/05 11:12:04;;;;;;;36.60;15.53;;;3.20;73.90;;;;;;4997802;28;20442;-59
2023/03/05 11:14:32;;;;;;;34.70;15.63;;;3.30;73.30;;;;;;4989349;28;20434;-55
2023/03/05 11:16:59;;;;;;;35.53;14.87;;;3.30;73.30;;;;;;4998543;28;20443;-54
2023/03/05 11:19:32;;;;;;;31.80;14.67;;;3.40;73.30;;;;;;5000866;28;20973;-58
2023/03/05 11:22:15;;;;;;;28.80;15.47;;;3.50;73.10;;;;;;5000135;28;20434;-59
2023/03/05 11:24:42;;;;;;;39.37;16.43;;;3.50;72.20;;;;;;4995990;28;20443;-60
2023/03/05 11:27:31;;;;;;;34.97;13.10;;;3.60;71.10;;;;;;5013490;28;20586;-58
2023/03/05 11:29:57;;;;;;;30.10;13.80;;;3.60;69.60;;;;;;4994900;28;20438;-58
2023/03/05 11:32:26;;;;;;;30.63;13.70;;;3.60;69.20;;;;;;5000265;28;20431;-60
2023/03/05 11:34:53;;;;;;;36.70;14.90;;;3.60;68.70;;;;;;5000601;28;20456;-58
2023/03/05 11:37:29;;;;;;;27.17;13.40;;;3.60;69.10;;;;;;4999718;28;20541;-58
2023/03/05 11:40:21;;;;;;;28.40;12.97;;;3.70;70.30;;;;;;4995182;28;20518;-58
2023/03/05 11:42:57;;;;;;;30.33;13.03;;;3.80;70.70;;;;;;5000117;28;20497;-60
2023/03/05 11:45:24;;;;;;;25.50;12.10;;;3.90;70.00;;;;;;4999130;28;20469;-59
2023/03/05 11:47:56;;;;;;;31.43;12.07;;;4.00;69.70;;;;;;4991737;28;20529;-59
2023/03/05 11:50:32;;;;;;;26.80;11.60;;;4.10;68.90;;;;;;4998694;28;20435;-60
2023/03/05 11:53:12;;;;;;;26.23;11.30;;;4.10;68.30;;;;;;4999017;28;20477;-60
2023/03/05 11:56:02;;;;;;;24.63;10.17;;;4.20;67.50;;;;;;4999397;28;20443;-60
2023/03/05 11:58:37;;;;;;;24.93;10.90;;;4.30;66.80;;;;;;4999766;28;21053;-59
2023/03/05 12:01:11;;;;;;;23.00;9.50;;;4.30;66.20;;;;;;4998944;28;20446;-60
2023/03/05 12:03:37;;;;;;;15.20;8.17;;;4.30;65.70;;;;;;4997263;28;20973;-60
2023/03/05 12:06:31;;;;;;;18.87;9.03;;;4.40;64.70;;;;;;4995703;28;20451;-59
2023/03/05 12:09:01;;;;;;;27.93;9.97;;;4.40;63.50;;;;;;5001361;28;20720;-59
2023/03/05 12:11:30;;;;;;;20.37;10.70;;;4.40;62.70;;;;;;5004567;28;20454;-59
2023/03/05 12:14:31;;;;;;;17.90;9.10;;;4.40;62.00;;;;;;4997975;28;20451;-59
2023/03/05 12:17:08;;;;;;;17.83;8.70;;;4.40;61.40;;;;;;4997424;28;20466;-57
2023/03/05 12:19:45;;;;;;;20.03;9.00;;;4.30;61.30;;;;;;4993582;28;20450;-57
2023/03/05 12:22:38;;;;;;;17.87;9.40;;;4.40;62.10;;;;;;4996492;28;20526;-57
2023/03/05 12:25:33;;;;;;;18.87;8.50;;;4.30;60.90;;;;;;4997293;28;20423;-57
2023/03/05 12:27:59;;;;;;;16.07;8.47;;;4.30;60.60;;;;;;4993761;28;20473;-55
2023/03/05 12:30:34;;;;;;;12.17;6.83;;;4.30;60.20;;;;;;4990276;28;20420;-58
2023/03/05 12:33:06;;;;;;;12.73;7.00;;;4.30;59.70;;;;;;4993553;28;22026;-59
2023/03/05 12:35:39;;;;;;;12.50;7.17;;;4.30;58.90;;;;;;4999720;28;20454;-60
2023/03/05 12:38:16;;;;;;;11.30;7.00;;;4.30;58.70;;;;;;4996277;28;20447;-61
2023/03/05 12:40:42;;;;;;;20.10;7.47;;;4.30;58.40;;;;;;4993275;28;20833;-60
2023/03/05 12:43:31;;;;;;;14.63;7.10;;;4.30;57.80;;;;;;4996336;28;20435;-61